Aérodrome :
LOGIN :

S'inscrire | Disclaimer

   EN    FR    IT 

 










Légende :    VFR   VFR Marginal   IFR   IFR Intensif   IFR Très Intensif
Visi : 
Plafond : 
>= 8 km
>= 3000ft
5 à 8 km
1000 à 3000 ft
1500m à 5 km
500 à 1000 ft
800 à 1500m
200 à 500 ft
< 800m
< 200 ft
Symboles :   Orages  Brouillard  Fortes neiges  Fortes précipitations  Vent > 20 kt
SIGMETs :   Divers  Orages  Givrage  Turbulence  Onde Orograph.  Cendres Volcan.






- Altitude de l'aérodrome : 24 ft
- Code IATA : IBZ


LEIB - Ibiza

DERNIER METAR :
  • 290700Z VRB02KT CAVOK 18/14 Q1018 NOSIG

METARs EXPIRÉS :
  • 290630Z VRB02KT CAVOK 16/13 Q1018 NOSIG
  • 290600Z VRB01KT CAVOK 15/13 Q1018 NOSIG
  • 290530Z VRB01KT CAVOK 15/13 Q1018 NOSIG
  • 290500Z VRB02KT CAVOK 15/13 Q1018 NOSIG
  • 290430Z VRB02KT CAVOK 14/13 Q1018 NOSIG

TAF TAF LEIB
Valide du 29 à 03h jusqu'au 30 à 03h UTC


290200Z 2903/3003 02004KT CAVOK TX25/2912Z TN16/2905Z
BECMG 2908/2910 09010KT
BECMG 2923/3001 02003KT



MET'MAP, la Météo Aéronautique d'un coup d'oeil ! - Copyright ORBIFLY Décembre 2007 - Disclaimer

ORBIFLY MET'MAP TEAM :

Programmation & Développement : Alexandra Zaïnal
Sur une idée originale de : Baudouin d'Aumeries
Assistance à la programmation : Marc-Olivier Méhu
Soutien technique & logistique : Manuel Goepfert

Contact : metmap@orbifly.com




SOURCES & CREDITS :

   NOAA